Time;durP1;ratioP1;P1;durP2;ratioP2;P2;SDS_P1;SDS_P2;PMS_P1;PMS_P2;Temp;Humidity;BMP_temperature;BMP_pressure;BME280_temperature;BME280_humidity;BME280_pressure;Samples;Min_cycle;Max_cycle;Signal;HPM_P1;HPM_P2
2023/03/23 00:01:29;;;;;;;7.50;4.10;;;;;;;-128.00;-1.00;-1.00;97871;295;1004571;-35
2023/03/23 00:03:56;;;;;;;7.50;4.40;;;;;;;-128.00;-1.00;-1.00;97840;285;1004280;-33
2023/03/23 00:06:24;;;;;;;10.00;4.30;;;;;;;-128.00;-1.00;-1.00;97865;297;1003215;-29
2023/03/23 00:08:56;;;;;;;6.70;3.40;;;;;;;-128.00;-1.00;-1.00;97781;297;1002861;-35
2023/03/23 00:11:25;;;;;;;5.50;3.70;;;;;;;-128.00;-1.00;-1.00;97881;295;1002882;-35
2023/03/23 00:13:51;;;;;;;8.00;4.30;;;;;;;-128.00;-1.00;-1.00;97837;295;1004019;-32
2023/03/23 00:16:28;;;;;;;7.20;4.30;;;;;;;-128.00;-1.00;-1.00;97947;295;1003119;-37
2023/03/23 00:18:54;;;;;;;7.60;4.90;;;;;;;-128.00;-1.00;-1.00;97931;295;1003229;-33
2023/03/23 00:21:25;;;;;;;5.40;3.80;;;;;;;-128.00;-1.00;-1.00;97920;295;1002987;-30
2023/03/23 00:23:53;;;;;;;8.60;4.30;;;;;;;-128.00;-1.00;-1.00;97927;295;1003657;-30
2023/03/23 00:26:19;;;;;;;10.10;4.80;;;;;;;-128.00;-1.00;-1.00;97931;295;1004199;-31
2023/03/23 00:28:46;;;;;;;11.90;5.90;;;;;;;-128.00;-1.00;-1.00;97793;295;1002977;-29
2023/03/23 00:31:12;;;;;;;10.60;5.30;;;;;;;-128.00;-1.00;-1.00;97847;295;1003651;-32
2023/03/23 00:33:40;;;;;;;7.60;5.10;;;;;;;-128.00;-1.00;-1.00;97827;295;1002675;-34
2023/03/23 00:36:12;;;;;;;11.00;4.50;;;;;;;-128.00;-1.00;-1.00;97844;295;1004556;-33
2023/03/23 00:38:39;;;;;;;10.20;5.10;;;;;;;-128.00;-1.00;-1.00;97938;295;1004467;-31
2023/03/23 00:41:05;;;;;;;6.00;4.40;;;;;;;-128.00;-1.00;-1.00;97958;295;1003007;-29
2023/03/23 00:43:31;;;;;;;8.70;4.30;;;;;;;-128.00;-1.00;-1.00;98034;295;1004050;-32
2023/03/23 00:46:00;;;;;;;13.70;5.50;;;;;;;-128.00;-1.00;-1.00;98060;295;1002745;-34
2023/03/23 00:48:27;;;;;;;6.00;4.20;;;;;;;-128.00;-1.00;-1.00;97911;296;1003447;-28
2023/03/23 00:52:46;;;;;;;8.50;5.60;;;;;;;;;;101131;288;543922;-31
2023/03/23 00:55:11;;;;;;;13.10;4.90;;;;;;;;;;101032;290;22577;-29
2023/03/23 00:57:37;;;;;;;6.80;4.50;;;;;;;;;;101097;302;23149;-33
2023/03/23 01:00:08;;;;;;;8.40;4.80;;;;;;;;;;101058;302;24081;-33
2023/03/23 01:02:35;;;;;;;8.70;5.40;;;;;;;;;;101135;303;22582;-33
2023/03/23 01:05:03;;;;;;;6.90;4.40;;;;;;;;;;101156;302;22687;-33
2023/03/23 01:07:30;;;;;;;11.20;5.70;;;;;;;;;;100707;300;505079;-36
2023/03/23 01:09:57;;;;;;;18.20;5.40;;;;;;;;;;101329;300;24149;-29
2023/03/23 01:12:24;;;;;;;14.70;5.20;;;;;;;;;;101359;300;22679;-30
2023/03/23 01:14:50;;;;;;;12.30;6.50;;;;;;;;;;101174;300;24258;-30
2023/03/23 01:17:16;;;;;;;11.20;5.80;;;;;;;;;;101334;300;22580;-34
2023/03/23 01:19:42;;;;;;;8.50;5.70;;;;;;;;;;101050;300;24333;-31
2023/03/23 01:22:07;;;;;;;7.70;5.10;;;;;;;;;;101196;300;24359;-30
2023/03/23 01:24:33;;;;;;;7.40;4.30;;;;;;;;;;101072;293;24216;-35
2023/03/23 01:27:01;;;;;;;11.50;5.70;;;;;;;;;;101134;289;22584;-33
2023/03/23 01:29:27;;;;;;;6.90;5.00;;;;;;;;;;101259;300;22832;-32
2023/03/23 01:31:52;;;;;;;8.70;5.20;;;;;;;;;;101224;300;22586;-38
2023/03/23 01:34:18;;;;;;;8.70;4.60;;;;;;;;;;101108;300;22615;-30
2023/03/23 01:36:43;;;;;;;4.70;3.30;;;;;;;;;;101128;300;22984;-33
2023/03/23 01:39:09;;;;;;;9.00;4.50;;;;;;;;;;101069;300;23039;-34
2023/03/23 01:41:35;;;;;;;9.90;3.90;;;;;;;;;;101100;289;22599;-29
2023/03/23 01:44:05;;;;;;;5.70;3.80;;;;;;;;;;101340;300;24291;-34
2023/03/23 01:46:31;;;;;;;7.80;3.60;;;;;;;;;;101045;289;24363;-33
2023/03/23 01:48:57;;;;;;;7.90;4.20;;;;;;;;;;101346;300;22590;-30
2023/03/23 01:51:23;;;;;;;10.10;3.50;;;;;;;;;;101471;300;24334;-30
2023/03/23 01:53:51;;;;;;;8.60;5.50;;;;;;;;;;101095;300;25154;-30
2023/03/23 01:56:16;;;;;;;7.70;5.10;;;;;;;;;;101218;300;24195;-31
2023/03/23 01:58:42;;;;;;;7.10;4.80;;;;;;;;;;101253;300;22675;-28
2023/03/23 02:01:11;;;;;;;6.30;3.60;;;;;;;;;;101039;300;22889;-37
2023/03/23 02:03:38;;;;;;;5.60;4.30;;;;;;;;;;101224;300;24153;-31
2023/03/23 02:06:03;;;;;;;6.00;4.20;;;;;;;;;;101232;301;24188;-31
2023/03/23 02:08:29;;;;;;;11.40;5.00;;;;;;;;;;101238;301;22580;-31
2023/03/23 02:10:55;;;;;;;5.90;4.90;;;;;;;;;;101179;301;22585;-34
2023/03/23 02:13:20;;;;;;;14.50;6.40;;;;;;;;;;101254;301;22580;-30
2023/03/23 02:15:48;;;;;;;23.90;9.70;;;;;;;;;;101175;301;22872;-34
2023/03/23 02:18:25;;;;;;;13.40;8.50;;;;;;;;;;101405;301;22908;-30
2023/03/23 02:21:01;;;;;;;18.70;8.20;;;;;;;;;;101264;300;24149;-29
2023/03/23 02:23:39;;;;;;;9.80;6.40;;;;;;;;;;101087;300;22824;-29
2023/03/23 02:26:16;;;;;;;8.00;5.50;;;;;;;;;;101304;300;24149;-40
2023/03/23 02:29:02;;;;;;;9.50;5.80;;;;;;;;;;101192;302;22579;-32
2023/03/23 02:31:30;;;;;;;6.20;4.60;;;;;;;;;;101010;300;22893;-35
2023/03/23 02:33:58;;;;;;;8.20;4.90;;;;;;;;;;101098;301;22994;-33
2023/03/23 02:36:29;;;;;;;7.10;3.30;;;;;;;;;;100983;301;23043;-31
2023/03/23 02:39:07;;;;;;;7.10;3.00;;;;;;;;;;101073;301;22861;-29
2023/03/23 02:41:35;;;;;;;2.90;2.30;;;;;;;;;;101073;300;24364;-35
2023/03/23 02:44:01;;;;;;;9.30;5.60;;;;;;;;;;101161;300;22577;-31
2023/03/23 02:46:28;;;;;;;4.00;2.60;;;;;;;;;;101182;300;22668;-32
2023/03/23 02:48:53;;;;;;;7.00;3.30;;;;;;;;;;101244;301;22546;-33
2023/03/23 02:51:20;;;;;;;7.00;4.30;;;;;;;;;;100978;302;22579;-36
2023/03/23 02:53:45;;;;;;;6.70;3.80;;;;;;;;;;101120;300;24149;-30
2023/03/23 02:56:11;;;;;;;6.20;4.10;;;;;;;;;;101419;300;24175;-33
2023/03/23 02:58:36;;;;;;;5.00;3.50;;;;;;;;;;101052;300;22580;-29
2023/03/23 03:01:14;;;;;;;9.90;5.70;;;;;;;;;;101156;300;24149;-29
2023/03/23 03:03:39;;;;;;;14.20;5.50;;;;;;;;;;101212;301;22890;-33
2023/03/23 03:06:09;;;;;;;10.50;5.00;;;;;;;;;;101075;300;24187;-29
2023/03/23 03:08:44;;;;;;;8.10;5.30;;;;;;;;;;101196;300;24290;-29
2023/03/23 03:11:13;;;;;;;5.80;3.80;;;;;;;;;;101210;301;24081;-31
2023/03/23 03:13:52;;;;;;;6.30;4.80;;;;;;;;;;101085;300;24069;-34
2023/03/23 03:16:24;;;;;;;11.60;5.40;;;;;;;;;;101310;300;24186;-31
2023/03/23 03:19:02;;;;;;;10.30;6.20;;;;;;;;;;101380;301;25240;-31
2023/03/23 03:21:28;;;;;;;10.50;5.70;;;;;;;;;;101040;300;24072;-36
2023/03/23 03:23:54;;;;;;;8.50;5.50;;;;;;;;;;101120;300;22679;-32
2023/03/23 03:26:20;;;;;;;7.30;5.80;;;;;;;;;;101302;300;22998;-31
2023/03/23 03:28:47;;;;;;;12.00;5.50;;;;;;;;;;101111;300;22694;-32
2023/03/23 03:31:13;;;;;;;6.80;4.50;;;;;;;;;;101118;300;22671;-32
2023/03/23 03:33:39;;;;;;;7.50;3.90;;;;;;;;;;100988;300;22647;-31
2023/03/23 03:36:08;;;;;;;5.30;3.60;;;;;;;;;;101141;302;24149;-29
2023/03/23 03:38:41;;;;;;;5.20;3.50;;;;;;;;;;101036;301;24259;-34
2023/03/23 03:41:06;;;;;;;8.30;4.40;;;;;;;;;;101343;300;23019;-30
2023/03/23 03:43:32;;;;;;;8.70;5.90;;;;;;;;;;101242;300;22846;-29
2023/03/23 03:45:57;;;;;;;5.90;4.10;;;;;;;;;;101214;300;22664;-34
2023/03/23 03:48:23;;;;;;;6.50;4.10;;;;;;;;;;101095;301;24144;-32
2023/03/23 03:50:48;;;;;;;7.90;4.70;;;;;;;;;;101434;300;24149;-29
2023/03/23 03:53:14;;;;;;;7.20;4.20;;;;;;;;;;101440;288;22749;-38
2023/03/23 03:55:44;;;;;;;7.60;4.10;;;;;;;;;;101346;298;24144;-33
2023/03/23 03:58:10;;;;;;;3.80;3.20;;;;;;;;;;101439;298;22637;-33
2023/03/23 04:00:36;;;;;;;8.30;5.30;;;;;;;;;;101361;298;24720;-30
2023/03/23 04:03:02;;;;;;;6.80;4.20;;;;;;;;;;101360;297;22646;-32
2023/03/23 04:05:28;;;;;;;13.30;5.00;;;;;;;;;;101411;286;22670;-33
2023/03/23 04:08:01;;;;;;;9.20;6.40;;;;;;;;;;101320;297;24266;-29
2023/03/23 04:10:26;;;;;;;9.10;7.10;;;;;;;;;;101353;298;24146;-30
2023/03/23 04:12:52;;;;;;;16.00;6.10;;;;;;;;;;101356;298;24262;-30
2023/03/23 04:15:17;;;;;;;11.20;6.90;;;;;;;;;;101376;298;22595;-33
2023/03/23 04:17:43;;;;;;;10.30;6.20;;;;;;;;;;101421;298;24234;-33
2023/03/23 04:20:15;;;;;;;7.50;5.40;;;;;;;;;;101468;285;22657;-29
2023/03/23 04:22:43;;;;;;;15.40;6.30;;;;;;;;;;101377;298;22579;-31
2023/03/23 04:25:10;;;;;;;8.70;6.50;;;;;;;;;;101297;286;24156;-30
2023/03/23 04:27:36;;;;;;;12.30;6.20;;;;;;;;;;101349;298;23042;-29
2023/03/23 04:30:02;;;;;;;11.60;6.20;;;;;;;;;;101355;298;23023;-32
2023/03/23 04:32:31;;;;;;;9.00;7.10;;;;;;;;;;101383;298;22579;-30
2023/03/23 04:35:00;;;;;;;10.70;7.10;;;;;;;;;;101394;298;23037;-30
2023/03/23 05:15:11;;;;;;;11.20;7.20;;;;;;;-100.88;19.20;19729.71;19565;295;8045444;-35
2023/03/23 05:17:38;;;;;;;11.60;7.60;;;;;;;-128.00;-1.00;-1.00;18277;295;7504168;-33
2023/03/23 05:20:07;;;;;;;10.70;8.60;;;;;;;-128.00;-1.00;-1.00;18483;295;7505651;-36
2023/03/23 05:22:33;;;;;;;12.20;8.20;;;;;;;-128.00;-1.00;-1.00;18480;307;7504658;-32
2023/03/23 05:25:02;;;;;;;10.60;8.90;;;;;;;-128.00;-1.00;-1.00;18482;295;7506359;-36
2023/03/23 05:27:30;;;;;;;51.00;12.20;;;;;;;-128.00;-1.00;-1.00;18466;295;7506860;-36
2023/03/23 05:29:59;;;;;;;24.30;10.20;;;;;;;-128.00;-1.00;-1.00;18436;295;7505872;-33
2023/03/23 05:32:29;;;;;;;11.10;7.70;;;;;;;-128.00;-1.00;-1.00;18484;295;7504798;-30
2023/03/23 05:34:56;;;;;;;10.60;8.40;;;;;;;-128.00;-1.00;-1.00;18488;319;7504814;-32
2023/03/23 05:37:22;;;;;;;10.40;8.50;;;;;;;-128.00;-1.00;-1.00;18470;288;7504614;-32
2023/03/23 05:39:48;;;;;;;10.50;7.00;;;;;;;-128.00;-1.00;-1.00;18461;311;7504476;-36
2023/03/23 05:42:13;;;;;;;9.00;6.50;;;;;;;-128.00;-1.00;-1.00;18452;295;7504939;-33
2023/03/23 05:44:39;;;;;;;12.60;7.30;;;;;;;-128.00;-1.00;-1.00;18476;297;7504672;-35
2023/03/23 05:47:05;;;;;;;12.80;8.40;;;;;;;-128.00;-1.00;-1.00;18487;295;7504717;-32
2023/03/23 05:49:31;;;;;;;10.80;7.40;;;;;;;-128.00;-1.00;-1.00;18855;295;7504465;-35
2023/03/23 05:51:58;;;;;;;12.10;7.50;;;;;;;-128.00;-1.00;-1.00;18889;287;7504426;-31
2023/03/23 05:54:24;;;;;;;13.10;6.80;;;;;;;-128.00;-1.00;-1.00;18462;340;7506671;-35
2023/03/23 05:56:50;;;;;;;11.70;7.20;;;;;;;-128.00;-1.00;-1.00;18481;295;7504874;-31
2023/03/23 05:59:16;;;;;;;8.80;7.00;;;;;;;-128.00;-1.00;-1.00;18467;296;7504721;-35
2023/03/23 06:01:42;;;;;;;14.40;5.90;;;;;;;-128.00;-1.00;-1.00;18482;320;7505492;-34
2023/03/23 06:04:09;;;;;;;11.30;6.10;;;;;;;-128.00;-1.00;-1.00;18464;289;7504610;-35
2023/03/23 06:06:34;;;;;;;9.20;6.50;;;;;;;-128.00;-1.00;-1.00;18478;287;7504662;-31
2023/03/23 06:09:00;;;;;;;6.60;5.70;;;;;;;-128.00;-1.00;-1.00;18459;296;7504516;-34
2023/03/23 06:11:26;;;;;;;10.60;6.70;;;;;;;-128.00;-1.00;-1.00;18476;289;7505824;-34
2023/03/23 06:13:53;;;;;;;6.40;5.50;;;;;;;-128.00;-1.00;-1.00;18467;295;7505562;-31
2023/03/23 06:16:18;;;;;;;8.50;5.70;;;;;;;-128.00;-1.00;-1.00;18472;297;7505218;-32
2023/03/23 06:18:49;;;;;;;7.50;6.20;;;;;;;-128.00;-1.00;-1.00;18478;347;7504455;-35
2023/03/23 06:21:18;;;;;;;5.80;5.30;;;;;;;-128.00;-1.00;-1.00;18460;299;7504313;-35
2023/03/23 06:23:45;;;;;;;11.60;5.40;;;;;;;-128.00;-1.00;-1.00;18498;288;7505476;-35
2023/03/23 06:26:11;;;;;;;9.20;6.10;;;;;;;-128.00;-1.00;-1.00;18473;347;7506177;-36
2023/03/23 06:28:38;;;;;;;9.60;7.50;;;;;;;-128.00;-1.00;-1.00;18478;295;7505881;-31
2023/03/23 06:31:06;;;;;;;7.10;5.50;;;;;;;-128.00;-1.00;-1.00;18485;296;7505861;-33
2023/03/23 06:33:33;;;;;;;6.00;5.10;;;;;;;-128.00;-1.00;-1.00;18485;296;7504495;-35
2023/03/23 06:35:59;;;;;;;7.00;4.90;;;;;;;-128.00;-1.00;-1.00;18491;336;7504546;-35
2023/03/23 06:38:26;;;;;;;11.10;5.70;;;;;;;-128.00;-1.00;-1.00;18460;295;7504995;-35
2023/03/23 06:40:52;;;;;;;4.80;4.30;;;;;;;-128.00;-1.00;-1.00;18457;336;7505712;-31
2023/03/23 06:43:18;;;;;;;4.70;4.20;;;;;;;-128.00;-1.00;-1.00;18474;288;7506395;-35
2023/03/23 06:45:44;;;;;;;7.20;5.80;;;;;;;-128.00;-1.00;-1.00;18462;296;7505286;-34
2023/03/23 06:48:10;;;;;;;4.90;3.80;;;;;;;-128.00;-1.00;-1.00;18471;347;7504598;-35
2023/03/23 06:50:36;;;;;;;6.80;5.80;;;;;;;-128.00;-1.00;-1.00;18886;296;7504510;-31
2023/03/23 06:53:02;;;;;;;6.20;4.30;;;;;;;-128.00;-1.00;-1.00;18879;295;7505050;-30
2023/03/23 06:55:28;;;;;;;6.00;5.00;;;;;;;-128.00;-1.00;-1.00;18878;288;7505298;-30
2023/03/23 06:57:54;;;;;;;5.70;4.30;;;;;;;-128.00;-1.00;-1.00;18906;296;7504518;-36
2023/03/23 07:00:21;;;;;;;6.70;4.50;;;;;;;-128.00;-1.00;-1.00;18859;285;7504885;-31
2023/03/23 07:02:47;;;;;;;6.60;5.10;;;;;;;-128.00;-1.00;-1.00;18887;295;7505074;-36
2023/03/23 07:05:14;;;;;;;7.10;4.90;;;;;;;-128.00;-1.00;-1.00;18886;319;7504559;-30
2023/03/23 07:07:40;;;;;;;6.00;4.40;;;;;;;-128.00;-1.00;-1.00;18481;287;7505206;-35
2023/03/23 07:10:08;;;;;;;7.70;3.80;;;;;;;-128.00;-1.00;-1.00;18461;296;7505873;-32
2023/03/23 07:12:35;;;;;;;5.60;3.80;;;;;;;-128.00;-1.00;-1.00;18463;288;7504293;-31
2023/03/23 07:15:02;;;;;;;4.30;3.70;;;;;;;-128.00;-1.00;-1.00;18457;296;7506381;-35
2023/03/23 07:17:28;;;;;;;7.10;4.60;;;;;;;-128.00;-1.00;-1.00;18458;296;7504423;-32
2023/03/23 07:19:55;;;;;;;14.90;4.50;;;;;;;-128.00;-1.00;-1.00;18436;342;7505405;-31
2023/03/23 07:22:21;;;;;;;5.90;4.80;;;;;;;-128.00;-1.00;-1.00;18903;288;7506030;-31
2023/03/23 07:24:47;;;;;;;15.30;5.60;;;;;;;-128.00;-1.00;-1.00;18880;347;7504799;-34
2023/03/23 07:27:13;;;;;;;6.40;5.00;;;;;;;-128.00;-1.00;-1.00;18860;297;7504509;-34
2023/03/23 07:29:40;;;;;;;5.40;4.70;;;;;;;-128.00;-1.00;-1.00;18884;295;7504522;-34
2023/03/23 07:32:08;;;;;;;5.50;4.30;;;;;;;-128.00;-1.00;-1.00;18873;288;7505040;-32
2023/03/23 07:34:34;;;;;;;10.30;4.40;;;;;;;-128.00;-1.00;-1.00;18488;296;7504343;-34
2023/03/23 07:37:00;;;;;;;5.50;4.30;;;;;;;-128.00;-1.00;-1.00;18496;296;7505244;-34
2023/03/23 07:39:25;;;;;;;6.30;3.90;;;;;;;-128.00;-1.00;-1.00;18471;295;7506037;-34
2023/03/23 07:41:51;;;;;;;4.20;3.60;;;;;;;-128.00;-1.00;-1.00;18457;296;7504782;-31
2023/03/23 07:44:17;;;;;;;4.20;3.80;;;;;;;-128.00;-1.00;-1.00;18480;296;7504117;-35
2023/03/23 07:46:43;;;;;;;5.00;3.30;;;;;;;-128.00;-1.00;-1.00;18456;348;7504800;-32
2023/03/23 07:49:10;;;;;;;6.00;3.70;;;;;;;-128.00;-1.00;-1.00;18495;296;7504182;-31
2023/03/23 07:51:38;;;;;;;5.90;4.60;;;;;;;-128.00;-1.00;-1.00;18444;296;7505557;-34
2023/03/23 07:54:04;;;;;;;7.80;4.00;;;;;;;-128.00;-1.00;-1.00;18483;288;7506036;-32
2023/03/23 07:56:31;;;;;;;3.70;3.40;;;;;;;-128.00;-1.00;-1.00;18443;337;7504194;-33
2023/03/23 07:58:56;;;;;;;7.10;3.80;;;;;;;-128.00;-1.00;-1.00;18479;296;7504079;-33
2023/03/23 08:01:23;;;;;;;4.70;3.90;;;;;;;-128.00;-1.00;-1.00;18471;288;7504293;-33
2023/03/23 08:03:51;;;;;;;5.90;4.10;;;;;;;-128.00;-1.00;-1.00;18473;307;7506174;-33
2023/03/23 08:06:17;;;;;;;9.80;4.30;;;;;;;-128.00;-1.00;-1.00;18484;288;7504786;-34
2023/03/23 08:08:42;;;;;;;6.50;4.50;;;;;;;-128.00;-1.00;-1.00;18464;288;7506658;-31
2023/03/23 08:11:09;;;;;;;5.70;4.40;;;;;;;-128.00;-1.00;-1.00;18919;296;7505713;-34
2023/03/23 08:13:35;;;;;;;6.60;4.80;;;;;;;-128.00;-1.00;-1.00;18482;323;7506070;-35
2023/03/23 08:16:04;;;;;;;8.90;4.00;;;;;;;-128.00;-1.00;-1.00;18491;284;7504253;-31
2023/03/23 08:18:31;;;;;;;5.70;2.90;;;;;;;-128.00;-1.00;-1.00;18455;347;7504501;-32
2023/03/23 08:20:58;;;;;;;12.00;3.20;;;;;;;-128.00;-1.00;-1.00;18463;297;7505845;-35
2023/03/23 08:23:24;;;;;;;5.80;3.40;;;;;;;-128.00;-1.00;-1.00;18485;336;7504391;-32
2023/03/23 08:25:49;;;;;;;5.70;4.20;;;;;;;-128.00;-1.00;-1.00;18474;288;7505165;-35
2023/03/23 08:28:15;;;;;;;8.20;3.70;;;;;;;-128.00;-1.00;-1.00;18882;347;7504604;-31
2023/03/23 08:30:42;;;;;;;3.50;3.00;;;;;;;-128.00;-1.00;-1.00;18862;284;7504919;-31
2023/03/23 08:33:10;;;;;;;4.80;2.90;;;;;;;-128.00;-1.00;-1.00;18493;288;7504276;-31
2023/03/23 08:35:36;;;;;;;6.30;4.00;;;;;;;-128.00;-1.00;-1.00;18501;288;7506128;-35
2023/03/23 08:38:02;;;;;;;4.10;3.00;;;;;;;-128.00;-1.00;-1.00;18495;296;7504524;-35
2023/03/23 08:40:29;;;;;;;8.70;3.90;;;;;;;-128.00;-1.00;-1.00;18483;288;7506986;-31
2023/03/23 08:42:54;;;;;;;5.00;2.70;;;;;;;-128.00;-1.00;-1.00;18459;296;7504626;-35
2023/03/23 08:45:22;;;;;;;5.00;3.80;;;;;;;-128.00;-1.00;-1.00;18439;297;7504679;-31
2023/03/23 08:47:51;;;;;;;3.60;3.00;;;;;;;-128.00;-1.00;-1.00;18433;287;7506318;-31
2023/03/23 08:50:19;;;;;;;5.90;3.50;;;;;;;-128.00;-1.00;-1.00;18491;285;7504487;-32
2023/03/23 08:52:45;;;;;;;9.50;3.40;;;;;;;-128.00;-1.00;-1.00;18532;295;7504531;-32
2023/03/23 08:55:12;;;;;;;4.60;2.90;;;;;;;-128.00;-1.00;-1.00;18500;303;7504333;-36
2023/03/23 08:57:38;;;;;;;4.30;3.90;;;;;;;-128.00;-1.00;-1.00;18501;296;7506218;-31
2023/03/23 09:00:13;;;;;;;9.60;3.20;;;;;;;-128.00;-1.00;-1.00;18465;319;7505582;-31
2023/03/23 09:02:38;;;;;;;7.20;3.80;;;;;;;-128.00;-1.00;-1.00;18507;288;7506341;-31
2023/03/23 09:05:04;;;;;;;3.70;2.60;;;;;;;-128.00;-1.00;-1.00;18475;319;7504568;-31
2023/03/23 09:07:30;;;;;;;4.00;2.90;;;;;;;-128.00;-1.00;-1.00;18501;288;7505562;-35
2023/03/23 09:09:56;;;;;;;4.70;3.70;;;;;;;-128.00;-1.00;-1.00;18468;347;7504980;-32
2023/03/23 09:12:23;;;;;;;3.90;2.00;;;;;;;-128.00;-1.00;-1.00;18494;347;7505201;-36
2023/03/23 09:14:48;;;;;;;3.90;2.90;;;;;;;-128.00;-1.00;-1.00;18507;288;7504687;-32
2023/03/23 09:17:14;;;;;;;3.50;2.50;;;;;;;-128.00;-1.00;-1.00;18505;288;7504461;-36
2023/03/23 09:19:39;;;;;;;3.30;3.00;;;;;;;-128.00;-1.00;-1.00;18462;296;7504136;-36
2023/03/23 09:22:05;;;;;;;5.10;3.40;;;;;;;-128.00;-1.00;-1.00;18461;289;7504933;-36
2023/03/23 09:24:31;;;;;;;3.70;2.60;;;;;;;-128.00;-1.00;-1.00;18911;288;7505530;-32
2023/03/23 09:26:58;;;;;;;4.30;2.80;;;;;;;-128.00;-1.00;-1.00;18885;304;7504768;-35
2023/03/23 09:29:26;;;;;;;5.50;3.10;;;;;;;-128.00;-1.00;-1.00;18890;295;7504624;-33
2023/03/23 09:31:55;;;;;;;4.90;2.70;;;;;;;-128.00;-1.00;-1.00;18475;336;7504738;-35
2023/03/23 09:34:22;;;;;;;4.70;2.50;;;;;;;-128.00;-1.00;-1.00;18496;295;7504580;-32
2023/03/23 09:36:48;;;;;;;3.00;1.90;;;;;;;-128.00;-1.00;-1.00;18511;296;7504907;-37
2023/03/23 09:39:13;;;;;;;3.20;2.10;;;;;;;-128.00;-1.00;-1.00;18498;295;7504539;-35
2023/03/23 09:42:03;;;;;;;2.70;1.80;;;;;;;-128.00;-1.00;-1.00;18512;296;7505235;-32
2023/03/23 09:44:49;;;;;;;1.60;1.40;;;;;;;-128.00;-1.00;-1.00;18495;296;7505869;-35
2023/03/23 09:47:28;;;;;;;5.00;1.50;;;;;;;-128.00;-1.00;-1.00;18487;308;7506980;-35
2023/03/23 09:50:12;;;;;;;3.40;1.90;;;;;;;-128.00;-1.00;-1.00;18469;288;7505100;-32
2023/03/23 09:52:46;;;;;;;2.60;1.40;;;;;;;-128.00;-1.00;-1.00;18493;347;7504560;-31
2023/03/23 09:55:16;;;;;;;3.00;2.00;;;;;;;-128.00;-1.00;-1.00;18470;296;7504629;-32
2023/03/23 09:57:52;;;;;;;3.60;1.30;;;;;;;-128.00;-1.00;-1.00;18475;347;7506436;-35
2023/03/23 10:00:24;;;;;;;3.10;1.80;;;;;;;-128.00;-1.00;-1.00;18467;296;7506478;-32
2023/03/23 10:03:05;;;;;;;2.00;1.40;;;;;;;-128.00;-1.00;-1.00;18486;288;7504381;-33
2023/03/23 10:05:33;;;;;;;1.30;0.80;;;;;;;-128.00;-1.00;-1.00;18454;285;7504687;-35
2023/03/23 10:08:00;;;;;;;1.40;1.20;;;;;;;-128.00;-1.00;-1.00;18484;337;7504440;-33
2023/03/23 10:10:32;;;;;;;2.70;1.50;;;;;;;-128.00;-1.00;-1.00;18485;288;7505534;-32
2023/03/23 10:13:11;;;;;;;2.40;1.30;;;;;;;-128.00;-1.00;-1.00;18484;285;7505514;-33
2023/03/23 10:15:38;;;;;;;2.20;1.30;;;;;;;-128.00;-1.00;-1.00;18472;296;7504412;-36
2023/03/23 10:18:24;;;;;;;5.00;1.00;;;;;;;-128.00;-1.00;-1.00;18503;288;7504846;-32
2023/03/23 10:20:56;;;;;;;2.20;1.00;;;;;;;-128.00;-1.00;-1.00;18484;296;7504869;-36
2023/03/23 10:23:37;;;;;;;2.40;1.80;;;;;;;-128.00;-1.00;-1.00;18485;289;7506557;-35
2023/03/23 10:26:19;;;;;;;8.20;1.10;;;;;;;-128.00;-1.00;-1.00;18465;348;7504826;-32
2023/03/23 10:28:48;;;;;;;2.60;1.30;;;;;;;-128.00;-1.00;-1.00;18470;303;7505106;-32
2023/03/23 10:31:17;;;;;;;8.00;0.90;;;;;;;-128.00;-1.00;-1.00;18471;340;7504664;-32
2023/03/23 10:33:45;;;;;;;4.90;1.50;;;;;;;-128.00;-1.00;-1.00;18462;315;7504302;-36
2023/03/23 10:36:21;;;;;;;1.00;1.00;;;;;;;-128.00;-1.00;-1.00;18493;296;7504503;-32
2023/03/23 10:38:58;;;;;;;3.80;0.70;;;;;;;-128.00;-1.00;-1.00;18474;311;7506312;-32
2023/03/23 10:41:24;;;;;;;2.50;1.40;;;;;;;-128.00;-1.00;-1.00;18488;295;7504764;-36
2023/03/23 10:43:50;;;;;;;2.50;1.00;;;;;;;-128.00;-1.00;-1.00;18459;288;7504886;-34
2023/03/23 10:46:37;;;;;;;9.70;4.00;;;;;;;-128.00;-1.00;-1.00;18462;284;7504596;-35
2023/03/23 10:49:10;;;;;;;1.90;1.30;;;;;;;-128.00;-1.00;-1.00;18480;289;7505087;-32
2023/03/23 10:51:39;;;;;;;7.80;0.80;;;;;;;-128.00;-1.00;-1.00;18474;288;7504657;-31
2023/03/23 10:54:05;;;;;;;0.30;0.30;;;;;;;-128.00;-1.00;-1.00;18471;288;7504575;-35
2023/03/23 10:56:39;;;;;;;3.20;0.60;;;;;;;-128.00;-1.00;-1.00;18476;288;7505440;-35
2023/03/23 10:59:21;;;;;;;9.50;1.10;;;;;;;-128.00;-1.00;-1.00;18474;296;7506244;-35
2023/03/23 11:01:49;;;;;;;;;;;;;;;-128.00;-1.00;-1.00;18522;288;7507251;-32
2023/03/23 11:44:42;;;;;;;1.60;0.80;;;;;;;-99.09;8.88;19726.91;97931;297;1546551;-30
2023/03/23 11:47:29;;;;;;;2.70;1.40;;;;;;;-128.00;-1.00;-1.00;97267;297;1003800;-33
2023/03/23 11:50:12;;;;;;;1.10;0.50;;;;;;;-128.00;-1.00;-1.00;97450;298;1004406;-36
2023/03/23 11:53:01;;;;;;;4.70;0.70;;;;;;;-128.00;-1.00;-1.00;97436;298;1004824;-28
2023/03/23 11:55:30;;;;;;;1.50;1.10;;;;;;;-128.00;-1.00;-1.00;97625;298;1004918;-34
2023/03/23 11:57:56;;;;;;;2.80;1.20;;;;;;;-128.00;-1.00;-1.00;97565;298;1004739;-31
2023/03/23 12:00:22;;;;;;;0.90;0.60;;;;;;;-128.00;-1.00;-1.00;97527;298;1004345;-29
2023/03/23 12:03:12;;;;;;;2.60;0.80;;;;;;;-128.00;-1.00;-1.00;97581;298;1006693;-36
2023/03/23 12:05:54;;;;;;;3.30;1.70;;;;;;;-128.00;-1.00;-1.00;97530;298;1005591;-34
2023/03/23 12:08:51;;;;;;;3.70;1.20;;;;;;;-128.00;-1.00;-1.00;97527;298;1005245;-35
2023/03/23 12:11:36;;;;;;;1.10;0.80;;;;;;;-128.00;-1.00;-1.00;97544;298;1004508;-34
2023/03/23 12:14:14;;;;;;;1.30;0.70;;;;;;;-128.00;-1.00;-1.00;97430;299;1004574;-34
2023/03/23 12:16:50;;;;;;;2.00;1.10;;;;;;;-128.00;-1.00;-1.00;97558;298;1005107;-30
2023/03/23 12:19:31;;;;;;;1.40;0.90;;;;;;;-128.00;-1.00;-1.00;97555;298;1005064;-34
2023/03/23 12:22:20;;;;;;;1.70;0.80;;;;;;;-128.00;-1.00;-1.00;97652;298;1004973;-38
2023/03/23 12:24:58;;;;;;;1.00;0.50;;;;;;;-128.00;-1.00;-1.00;97538;298;1005173;-29
2023/03/23 12:27:46;;;;;;;1.20;0.50;;;;;;;-128.00;-1.00;-1.00;97489;298;1005148;-32
2023/03/23 12:30:36;;;;;;;0.90;0.60;;;;;;;-128.00;-1.00;-1.00;97552;298;1004869;-35
2023/03/23 12:33:31;;;;;;;2.00;0.50;;;;;;;-128.00;-1.00;-1.00;97560;298;1005527;-30
2023/03/23 12:36:12;;;;;;;2.10;1.10;;;;;;;-128.00;-1.00;-1.00;97476;298;1005808;-31
2023/03/23 12:38:57;;;;;;;12.30;1.10;;;;;;;-128.00;-1.00;-1.00;97615;298;1005186;-34
2023/03/23 12:41:28;;;;;;;1.10;0.50;;;;;;;-128.00;-1.00;-1.00;97558;298;1005181;-36
2023/03/23 12:44:03;;;;;;;1.00;0.40;;;;;;;-128.00;-1.00;-1.00;97576;297;1004100;-34
2023/03/23 12:46:49;;;;;;;1.40;0.40;;;;;;;-128.00;-1.00;-1.00;97639;297;1005082;-36
2023/03/23 12:49:22;;;;;;;1.10;0.90;;;;;;;-128.00;-1.00;-1.00;97019;297;1003686;-34
2023/03/23 12:52:11;;;;;;;1.00;0.60;;;;;;;-128.00;-1.00;-1.00;97577;298;1005716;-34
2023/03/23 12:54:53;;;;;;;0.50;0.50;;;;;;;-128.00;-1.00;-1.00;95430;289;1003784;-30
2023/03/23 12:57:30;;;;;;;1.20;0.70;;;;;;;-128.00;-1.00;-1.00;97557;298;1004792;-30
2023/03/23 13:00:14;;;;;;;0.70;0.50;;;;;;;-128.00;-1.00;-1.00;96050;287;1006042;-34
2023/03/23 13:02:50;;;;;;;1.30;0.80;;;;;;;-128.00;-1.00;-1.00;97421;287;1005215;-34
2023/03/23 13:05:29;;;;;;;1.30;0.60;;;;;;;-128.00;-1.00;-1.00;97608;297;1004333;-34
2023/03/23 13:08:09;;;;;;;1.90;0.80;;;;;;;-128.00;-1.00;-1.00;97524;297;1005110;-29
2023/03/23 13:10:45;;;;;;;2.60;0.80;;;;;;;-128.00;-1.00;-1.00;97630;297;1005769;-30
2023/03/23 13:13:14;;;;;;;0.70;0.40;;;;;;;-128.00;-1.00;-1.00;97512;299;1004491;-36
2023/03/23 13:16:04;;;;;;;0.80;0.60;;;;;;;-128.00;-1.00;-1.00;96765;298;1004924;-35
2023/03/23 13:18:54;;;;;;;3.30;0.50;;;;;;;-128.00;-1.00;-1.00;96928;297;1005037;-36
2023/03/23 13:21:30;;;;;;;1.50;0.60;;;;;;;-128.00;-1.00;-1.00;97731;297;1005609;-35
2023/03/23 13:23:59;;;;;;;7.20;1.30;;;;;;;-128.00;-1.00;-1.00;97530;298;1005021;-35
2023/03/23 13:26:25;;;;;;;2.20;1.70;;;;;;;-128.00;-1.00;-1.00;97660;297;1004501;-31
2023/03/23 13:28:57;;;;;;;5.80;3.50;;;;;;;-128.00;-1.00;-1.00;97598;297;1007282;-31
2023/03/23 13:31:33;;;;;;;3.60;1.80;;;;;;;-128.00;-1.00;-1.00;97441;297;1004962;-29
2023/03/23 13:34:02;;;;;;;2.30;1.10;;;;;;;-128.00;-1.00;-1.00;97617;297;1004420;-36
2023/03/23 13:36:31;;;;;;;2.00;1.70;;;;;;;-128.00;-1.00;-1.00;96295;287;1005779;-32
2023/03/23 13:38:59;;;;;;;4.80;1.50;;;;;;;-128.00;-1.00;-1.00;97836;297;1004004;-32
2023/03/23 13:41:26;;;;;;;3.60;0.90;;;;;;;-128.00;-1.00;-1.00;97696;297;1002935;-31
2023/03/23 13:43:51;;;;;;;1.60;0.70;;;;;;;-128.00;-1.00;-1.00;97670;298;1004154;-34
2023/03/23 13:46:28;;;;;;;1.50;0.80;;;;;;;-128.00;-1.00;-1.00;97852;297;1003214;-34
2023/03/23 13:49:18;;;;;;;2.60;1.00;;;;;;;-128.00;-1.00;-1.00;97854;297;1002916;-36
2023/03/23 13:51:59;;;;;;;1.30;0.80;;;;;;;-128.00;-1.00;-1.00;97863;297;1003203;-30